createdAt,value
2022-08-28T00:00:41.763Z,12.57
2022-08-28T00:03:10.456Z,13.27
2022-08-28T00:05:39.563Z,13.67
2022-08-28T00:08:08.168Z,11.83
2022-08-28T00:10:35.771Z,13.87
2022-08-28T00:13:02.562Z,13.47
2022-08-28T00:15:32.727Z,12.60
2022-08-28T00:18:00.780Z,13.37
2022-08-28T00:20:28.836Z,12.43
2022-08-28T00:22:56.478Z,13.40
2022-08-28T00:25:26.197Z,14.97
2022-08-28T00:27:57.309Z,13.90
2022-08-28T00:30:26.032Z,14.13
2022-08-28T00:32:54.394Z,15.00
2022-08-28T00:35:23.783Z,15.70
2022-08-28T00:37:50.887Z,15.27
2022-08-28T00:40:30.478Z,15.27
2022-08-28T00:43:01.736Z,15.70
2022-08-28T00:45:29.331Z,14.80
2022-08-28T00:47:56.405Z,14.33
2022-08-28T00:50:27.170Z,14.73
2022-08-28T00:53:00.227Z,14.17
2022-08-28T00:55:29.052Z,14.17
2022-08-28T00:58:00.497Z,15.13
2022-08-28T01:00:35.077Z,14.67
2022-08-28T01:03:03.866Z,15.07
2022-08-28T01:05:30.803Z,14.77
2022-08-28T01:07:58.953Z,13.47
2022-08-28T01:10:28.214Z,15.00
2022-08-28T01:12:57.269Z,13.57
2022-08-28T01:15:31.601Z,14.10
2022-08-28T01:18:08.322Z,13.90
2022-08-28T01:20:38.177Z,14.53
2022-08-28T01:23:40.238Z,12.80
2022-08-28T01:26:11.821Z,13.13
2022-08-28T01:28:39.579Z,12.60
2022-08-28T01:31:08.905Z,11.07
2022-08-28T01:33:35.801Z,10.97
2022-08-28T01:36:02.818Z,10.97
2022-08-28T01:38:29.678Z,10.67
2022-08-28T01:40:58.269Z,10.63
2022-08-28T01:43:26.870Z,8.87
2022-08-28T01:45:57.583Z,8.27
2022-08-28T01:48:26.534Z,7.87
2022-08-28T01:50:53.578Z,7.50
2022-08-28T01:53:25.180Z,7.63
2022-08-28T01:56:01.723Z,7.70
2022-08-28T01:58:32.237Z,7.70
2022-08-28T02:01:02.008Z,8.60
2022-08-28T02:03:28.832Z,8.13
2022-08-28T02:05:55.648Z,7.63
2022-08-28T02:08:22.461Z,7.00
2022-08-28T02:10:49.425Z,7.40
2022-08-28T02:13:16.629Z,8.07
2022-08-28T02:15:44.465Z,7.13
2022-08-28T02:18:12.106Z,7.43
2022-08-28T02:20:39.043Z,7.23
2022-08-28T02:23:06.280Z,7.87
2022-08-28T02:25:33.500Z,7.57
2022-08-28T02:28:00.263Z,6.97
2022-08-28T02:30:27.726Z,7.13
2022-08-28T02:32:54.819Z,7.93
2022-08-28T02:35:23.720Z,7.13
2022-08-28T02:37:51.356Z,6.77
2022-08-28T02:40:23.658Z,6.87
2022-08-28T02:42:52.130Z,7.50
2022-08-28T02:45:20.207Z,7.40
2022-08-28T02:47:48.100Z,7.57
2022-08-28T02:50:17.640Z,7.23
2022-08-28T02:52:44.789Z,7.67
2022-08-28T02:55:13.666Z,8.00
2022-08-28T02:57:41.111Z,8.00
2022-08-28T03:00:12.011Z,7.60
2022-08-28T03:02:40.395Z,7.80
2022-08-28T03:05:08.725Z,7.57
2022-08-28T03:07:36.047Z,7.97
2022-08-28T03:10:03.719Z,7.90
2022-08-28T03:12:30.482Z,7.63
2022-08-28T03:14:57.307Z,7.43
2022-08-28T03:17:24.124Z,7.40
2022-08-28T03:19:51.638Z,7.07
2022-08-28T03:22:39.767Z,7.40
2022-08-28T03:25:07.251Z,7.10
2022-08-28T03:27:34.185Z,7.00
2022-08-28T03:30:02.704Z,7.37
2022-08-28T03:32:29.720Z,7.67
2022-08-28T03:34:56.489Z,7.40
2022-08-28T03:37:23.583Z,7.00
2022-08-28T03:39:50.413Z,7.33
2022-08-28T03:42:17.430Z,7.13
2022-08-28T03:44:44.348Z,6.93
2022-08-28T03:47:12.406Z,7.80
2022-08-28T03:49:40.456Z,6.80
2022-08-28T03:52:07.283Z,6.37
2022-08-28T03:54:34.150Z,6.30
2022-08-28T03:57:01.024Z,6.73
2022-08-28T03:59:29.803Z,6.40
2022-08-28T04:02:00.362Z,6.63
2022-08-28T04:04:27.871Z,6.60
2022-08-28T04:06:54.682Z,6.83
2022-08-28T04:09:21.487Z,7.03
2022-08-28T04:11:48.299Z,6.93
2022-08-28T04:14:15.154Z,7.70
2022-08-28T04:16:42.159Z,6.90
2022-08-28T04:19:09.082Z,7.40
2022-08-28T04:21:35.950Z,7.73
2022-08-28T04:24:05.769Z,7.90
2022-08-28T04:26:36.740Z,9.30
2022-08-28T04:29:04.807Z,8.50
2022-08-28T04:31:32.844Z,9.93
2022-08-28T04:34:05.481Z,9.67
2022-08-28T04:36:33.861Z,10.27
2022-08-28T04:39:01.053Z,10.40
2022-08-28T04:41:28.517Z,14.03
2022-08-28T04:43:57.492Z,14.90
2022-08-28T04:46:25.270Z,15.17
2022-08-28T04:48:52.201Z,15.10
2022-08-28T04:51:20.588Z,14.97
2022-08-28T04:53:48.126Z,14.60
2022-08-28T04:56:15.396Z,13.93
2022-08-28T04:58:43.838Z,14.97
2022-08-28T05:01:24.424Z,13.87
2022-08-28T05:03:55.056Z,13.40
2022-08-28T05:06:22.827Z,14.77
2022-08-28T05:08:49.687Z,16.40
2022-08-28T05:11:33.113Z,15.90
2022-08-28T05:14:06.820Z,15.40
2022-08-28T05:16:39.511Z,16.50
2022-08-28T05:19:06.483Z,15.33
2022-08-28T05:21:33.401Z,16.03
2022-08-28T05:24:00.247Z,16.77
2022-08-28T05:26:28.412Z,16.33
2022-08-28T05:28:59.374Z,15.67
2022-08-28T05:31:27.943Z,15.70
2022-08-28T05:33:55.248Z,15.70
2022-08-28T05:36:25.740Z,16.57
2022-08-28T05:39:00.339Z,17.33
2022-08-28T05:41:30.231Z,16.10
2022-08-28T05:44:02.181Z,15.80
2022-08-28T05:46:29.693Z,15.10
2022-08-28T05:48:57.630Z,15.20
2022-08-28T05:51:26.862Z,15.83
2022-08-28T05:53:55.022Z,15.40
2022-08-28T05:56:24.853Z,14.00
2022-08-28T05:58:51.801Z,14.17
2022-08-28T06:01:29.845Z,14.30
2022-08-28T06:03:59.536Z,13.80
2022-08-28T06:06:29.522Z,13.40
2022-08-28T06:09:01.750Z,13.63
2022-08-28T06:11:30.597Z,14.00
2022-08-28T06:14:03.764Z,13.77
2022-08-28T06:16:32.287Z,13.93
2022-08-28T06:19:00.716Z,14.93
2022-08-28T06:21:28.252Z,14.13
2022-08-28T06:23:55.552Z,14.07
2022-08-28T06:26:23.397Z,14.80
2022-08-28T06:28:50.197Z,13.87
2022-08-28T06:31:24.768Z,13.83
2022-08-28T06:33:57.286Z,13.70
2022-08-28T06:36:25.656Z,13.93
2022-08-28T06:38:52.454Z,13.93
2022-08-28T06:41:19.759Z,13.43
2022-08-28T06:43:46.663Z,14.03
2022-08-28T06:46:13.609Z,13.43
2022-08-28T06:48:40.537Z,13.90
2022-08-28T06:51:09.776Z,14.13
2022-08-28T06:53:37.658Z,13.43
2022-08-28T06:56:08.666Z,12.60
2022-08-28T06:58:37.919Z,13.13
2022-08-28T07:01:10.359Z,13.20
2022-08-28T07:03:37.469Z,12.87
2022-08-28T07:06:13.140Z,13.40
2022-08-28T07:08:41.725Z,13.93
2022-08-28T07:11:18.411Z,13.50
2022-08-28T07:13:46.354Z,13.70
2022-08-28T07:16:15.612Z,12.17
2022-08-28T07:18:42.771Z,13.27
2022-08-28T07:21:12.483Z,13.50
2022-08-28T07:23:40.916Z,12.43
2022-08-28T07:26:11.813Z,12.70
2022-08-28T07:28:39.414Z,12.90
2022-08-28T07:31:13.408Z,13.50
2022-08-28T07:33:41.264Z,13.10
2022-08-28T07:36:28.897Z,11.77
2022-08-28T07:38:59.097Z,12.43
2022-08-28T07:41:31.448Z,12.77
2022-08-28T07:44:17.209Z,12.03
2022-08-28T07:46:44.980Z,13.63
2022-08-28T07:49:13.076Z,14.20
2022-08-28T07:51:39.881Z,12.27
2022-08-28T07:54:11.620Z,13.10
2022-08-28T07:56:43.992Z,12.93
2022-08-28T07:59:11.562Z,12.03
2022-08-28T08:01:42.793Z,13.90
2022-08-28T08:04:12.825Z,12.70
2022-08-28T08:06:41.819Z,13.03
2022-08-28T08:09:11.082Z,12.80
2022-08-28T08:11:37.963Z,13.10
2022-08-28T08:14:06.109Z,11.67
2022-08-28T08:16:35.617Z,13.23
2022-08-28T08:19:03.403Z,12.13
2022-08-28T08:21:30.754Z,11.47
2022-08-28T08:23:58.072Z,11.90
2022-08-28T08:26:29.819Z,12.90
2022-08-28T08:28:57.352Z,12.73
2022-08-28T08:31:29.862Z,11.73
2022-08-28T08:34:01.404Z,11.60
2022-08-28T08:36:30.503Z,12.90
2022-08-28T08:38:59.548Z,11.40
2022-08-28T08:41:48.856Z,10.83
2022-08-28T08:44:36.023Z,11.07
2022-08-28T08:47:15.329Z,10.90
2022-08-28T08:49:54.352Z,10.63
2022-08-28T08:52:37.152Z,10.80
2022-08-28T08:55:15.788Z,11.93
2022-08-28T08:57:49.104Z,11.17
2022-08-28T09:00:17.945Z,12.07
2022-08-28T09:03:02.128Z,11.07
2022-08-28T09:05:56.920Z,10.97
2022-08-28T09:08:42.490Z,10.37
2022-08-28T09:11:22.016Z,10.90
2022-08-28T09:14:01.354Z,10.53
2022-08-28T09:16:39.974Z,10.47
2022-08-28T09:19:10.536Z,10.70
2022-08-28T09:21:41.760Z,9.93
2022-08-28T09:24:32.785Z,10.47
2022-08-28T09:26:59.598Z,9.83
2022-08-28T09:29:30.318Z,10.17
2022-08-28T09:31:57.812Z,9.20
2022-08-28T09:34:35.463Z,9.07
2022-08-28T09:37:08.439Z,9.63
2022-08-28T09:39:37.982Z,9.67
2022-08-28T09:42:40.278Z,9.13
2022-08-28T09:45:18.623Z,9.63
2022-08-28T09:47:54.049Z,8.50
2022-08-28T09:50:41.427Z,8.57
2022-08-28T09:53:14.084Z,8.60
2022-08-28T09:55:46.949Z,9.50
2022-08-28T09:58:15.635Z,8.93
2022-08-28T10:00:55.408Z,9.07
2022-08-28T10:03:46.333Z,9.37
2022-08-28T10:06:29.398Z,10.00
2022-08-28T10:09:20.017Z,9.10
2022-08-28T10:12:15.126Z,9.03
2022-08-28T10:15:05.986Z,9.03
2022-08-28T10:17:56.424Z,8.87
2022-08-28T10:20:51.900Z,9.53
2022-08-28T10:24:05.444Z,8.47
2022-08-28T10:26:38.585Z,8.00
2022-08-28T10:29:14.348Z,8.80
2022-08-28T10:31:45.045Z,8.27
2022-08-28T10:34:47.623Z,7.30
2022-08-28T10:37:42.197Z,7.30
2022-08-28T10:40:28.941Z,7.70
2022-08-28T10:43:25.967Z,6.43
2022-08-28T10:45:54.918Z,7.70
2022-08-28T10:48:50.183Z,7.40
2022-08-28T10:51:35.334Z,6.60
2022-08-28T10:54:19.009Z,7.00
2022-08-28T10:56:56.820Z,6.60
2022-08-28T10:59:25.774Z,6.77
2022-08-28T11:01:52.870Z,7.30
2022-08-28T11:04:25.695Z,7.03
2022-08-28T11:07:03.605Z,6.70
2022-08-28T11:09:35.595Z,6.70
2022-08-28T11:12:07.036Z,6.93
2022-08-28T11:14:48.171Z,6.40
2022-08-28T11:17:25.383Z,7.00
2022-08-28T11:20:14.308Z,5.80
2022-08-28T11:22:51.846Z,6.37
2022-08-28T11:25:32.551Z,6.67
2022-08-28T11:28:22.440Z,5.97
2022-08-28T11:31:06.295Z,5.47
2022-08-28T11:33:38.242Z,5.17
2022-08-28T11:36:09.552Z,6.60
2022-08-28T11:38:42.362Z,5.83
2022-08-28T11:41:30.028Z,5.80
2022-08-28T11:44:14.819Z,5.30
2022-08-28T11:46:49.928Z,5.70
2022-08-28T11:49:34.871Z,5.53
2022-08-28T11:52:22.927Z,5.23
2022-08-28T11:54:55.593Z,5.67
2022-08-28T11:57:41.947Z,4.80
2022-08-28T12:00:47.835Z,5.13
2022-08-28T12:03:26.349Z,5.00
2022-08-28T12:05:58.571Z,5.60
2022-08-28T12:08:44.225Z,5.50
2022-08-28T12:11:31.864Z,5.47
2022-08-28T12:13:58.956Z,4.93
2022-08-28T12:16:26.144Z,5.27
2022-08-28T12:18:53.029Z,5.10
2022-08-28T12:21:24.875Z,4.47
2022-08-28T12:24:00.145Z,5.37
2022-08-28T12:26:35.849Z,5.30
2022-08-28T12:29:32.394Z,5.43
2022-08-28T12:32:15.170Z,5.13
2022-08-28T12:34:51.020Z,5.03
2022-08-28T12:37:29.741Z,5.13
2022-08-28T12:40:03.423Z,4.90
2022-08-28T12:42:34.179Z,4.97
2022-08-28T12:45:05.285Z,5.23
2022-08-28T12:47:34.054Z,5.13
2022-08-28T12:50:19.420Z,5.10
2022-08-28T12:52:52.265Z,5.87
2022-08-28T12:55:24.337Z,4.67
2022-08-28T12:57:52.581Z,5.00
2022-08-28T13:00:23.284Z,5.37
2022-08-28T13:02:54.427Z,4.77
2022-08-28T13:05:30.180Z,4.87
2022-08-28T13:07:58.659Z,4.60
2022-08-28T13:10:27.635Z,4.63
2022-08-28T13:13:05.227Z,5.20
2022-08-28T13:15:56.392Z,5.07
2022-08-28T13:18:41.432Z,5.10
2022-08-28T13:21:33.497Z,5.47
2022-08-28T13:24:22.043Z,5.20
2022-08-28T13:27:12.097Z,5.37
2022-08-28T13:29:57.374Z,5.10
2022-08-28T13:32:30.065Z,4.93
2022-08-28T13:35:08.876Z,4.57
2022-08-28T13:37:44.391Z,5.63
2022-08-28T13:40:30.280Z,5.00
2022-08-28T13:43:07.011Z,4.80
2022-08-28T13:45:43.177Z,4.17
2022-08-28T13:48:13.233Z,4.37
2022-08-28T13:50:44.791Z,5.00
2022-08-28T13:53:15.205Z,4.73
2022-08-28T13:55:42.058Z,4.57
2022-08-28T13:58:08.859Z,4.67
2022-08-28T14:00:41.387Z,4.17
2022-08-28T14:03:26.734Z,4.80
2022-08-28T14:05:54.023Z,4.70
2022-08-28T14:08:21.946Z,4.53
2022-08-28T14:10:49.043Z,4.60
2022-08-28T14:13:16.132Z,4.93
2022-08-28T14:15:42.919Z,5.07
2022-08-28T14:18:10.828Z,5.20
2022-08-28T14:20:38.846Z,4.87
2022-08-28T14:23:05.684Z,4.77
2022-08-28T14:25:37.036Z,4.47
2022-08-28T14:28:05.954Z,4.33
2022-08-28T14:30:32.785Z,4.77
2022-08-28T14:32:59.554Z,4.80
2022-08-28T14:35:26.659Z,4.70
2022-08-28T14:37:53.478Z,4.70
2022-08-28T14:40:20.683Z,4.07
2022-08-28T14:42:47.677Z,4.83
2022-08-28T14:45:14.673Z,5.10
2022-08-28T14:47:41.550Z,4.13
2022-08-28T14:50:08.824Z,4.63
2022-08-28T14:52:35.754Z,4.40
2022-08-28T14:55:02.567Z,4.33
2022-08-28T14:57:29.581Z,4.20
2022-08-28T14:59:56.417Z,4.83
2022-08-28T15:02:23.511Z,4.87
2022-08-28T15:04:50.295Z,4.17
2022-08-28T15:07:17.222Z,4.47
2022-08-28T15:09:44.101Z,5.27
2022-08-28T15:12:11.447Z,4.27
2022-08-28T15:14:38.368Z,4.20
2022-08-28T15:17:05.746Z,4.90
2022-08-28T15:19:32.772Z,5.03
2022-08-28T15:22:00.256Z,4.67
2022-08-28T15:24:31.423Z,4.37
2022-08-28T15:26:59.781Z,5.00
2022-08-28T15:29:29.135Z,4.50
2022-08-28T15:31:56.746Z,4.10
2022-08-28T15:34:28.226Z,4.30
2022-08-28T15:36:56.236Z,4.17
2022-08-28T15:39:43.879Z,4.67
2022-08-28T15:42:11.432Z,4.10
2022-08-28T15:44:38.960Z,4.67
2022-08-28T15:47:06.291Z,4.27
2022-08-28T15:49:43.592Z,4.47
2022-08-28T15:52:13.889Z,4.77
2022-08-28T15:54:41.651Z,4.93
2022-08-28T15:57:08.454Z,5.00
2022-08-28T15:59:44.143Z,4.47
2022-08-28T16:02:18.638Z,4.47
2022-08-28T16:04:45.618Z,4.40
2022-08-28T16:07:12.461Z,4.37
2022-08-28T16:09:39.244Z,4.33
2022-08-28T16:12:06.452Z,4.27
2022-08-28T16:14:33.717Z,4.47
2022-08-28T16:17:05.689Z,3.90
2022-08-28T16:19:38.620Z,4.40
2022-08-28T16:22:05.562Z,4.20
2022-08-28T16:24:32.375Z,3.93
2022-08-28T16:26:59.293Z,4.57
2022-08-28T16:29:28.654Z,4.40
2022-08-28T16:31:56.695Z,4.40
2022-08-28T16:34:27.134Z,4.20
2022-08-28T16:36:56.250Z,3.87
2022-08-28T16:39:23.075Z,4.43
2022-08-28T16:41:50.318Z,4.57
2022-08-28T16:44:21.432Z,4.30
2022-08-28T16:46:48.934Z,4.13
2022-08-28T16:49:16.002Z,4.20
2022-08-28T16:51:42.800Z,4.77
2022-08-28T16:54:09.624Z,4.00
2022-08-28T16:56:37.345Z,4.53
2022-08-28T16:59:04.492Z,4.50
2022-08-28T17:01:38.146Z,4.30
2022-08-28T17:04:07.783Z,4.20
2022-08-28T17:06:35.497Z,4.60
2022-08-28T17:09:02.376Z,4.00
2022-08-28T17:11:29.478Z,4.67
2022-08-28T17:13:56.805Z,4.27
2022-08-28T17:16:25.569Z,4.53
2022-08-28T17:18:53.082Z,4.70
2022-08-28T17:21:40.462Z,4.13
2022-08-28T17:24:08.770Z,4.63
2022-08-28T17:26:35.645Z,4.47
2022-08-28T17:29:03.075Z,4.60
2022-08-28T17:31:30.089Z,4.17
2022-08-28T17:33:57.092Z,4.70
2022-08-28T17:36:33.392Z,4.77
2022-08-28T17:39:03.622Z,5.03
2022-08-28T17:41:31.630Z,4.70
2022-08-28T17:43:59.940Z,4.37
2022-08-28T17:46:26.901Z,4.20
2022-08-28T17:48:56.202Z,4.10
2022-08-28T17:51:41.971Z,4.17
2022-08-28T17:54:11.044Z,5.23
2022-08-28T17:56:38.176Z,4.80
2022-08-28T17:59:05.175Z,4.73
2022-08-28T18:01:31.994Z,4.97
2022-08-28T18:03:59.046Z,5.07
2022-08-28T18:06:25.826Z,5.23
2022-08-28T18:08:52.721Z,6.73
2022-08-28T18:11:19.725Z,8.10
2022-08-28T18:13:46.748Z,6.80
2022-08-28T18:16:14.004Z,6.53
2022-08-28T18:18:41.548Z,6.80
2022-08-28T18:21:10.929Z,6.67
2022-08-28T18:23:39.660Z,6.67
2022-08-28T18:26:08.228Z,6.20
2022-08-28T18:28:35.406Z,6.27
2022-08-28T18:31:03.588Z,5.67
2022-08-28T18:33:30.455Z,5.07
2022-08-28T18:35:58.014Z,4.73
2022-08-28T18:38:28.268Z,4.67
2022-08-28T18:40:56.078Z,5.43
2022-08-28T18:43:23.656Z,6.17
2022-08-28T18:45:50.492Z,5.83
2022-08-28T18:48:18.450Z,6.23
2022-08-28T18:50:47.731Z,6.53
2022-08-28T18:53:15.722Z,6.70
2022-08-28T18:55:42.547Z,5.27
2022-08-28T18:58:11.522Z,5.83
2022-08-28T19:00:42.189Z,5.73
2022-08-28T19:03:09.621Z,7.10
2022-08-28T19:05:38.068Z,5.70
2022-08-28T19:08:05.797Z,5.60
2022-08-28T19:10:34.852Z,5.30
2022-08-28T19:13:03.307Z,6.47
2022-08-28T19:15:33.238Z,6.30
2022-08-28T19:18:00.522Z,5.70
2022-08-28T19:20:28.477Z,5.00
2022-08-28T19:22:56.356Z,5.57
2022-08-28T19:25:28.351Z,5.73
2022-08-28T19:28:00.189Z,6.17
2022-08-28T19:30:29.233Z,5.90
2022-08-28T19:32:56.010Z,5.93
2022-08-28T19:35:24.557Z,5.90
2022-08-28T19:37:52.722Z,7.10
2022-08-28T19:40:20.671Z,6.47
2022-08-28T19:42:49.883Z,6.50
2022-08-28T19:45:18.339Z,9.37
2022-08-28T19:47:45.665Z,6.77
2022-08-28T19:50:14.050Z,6.47
2022-08-28T19:52:41.446Z,6.30
2022-08-28T19:55:08.813Z,5.87
2022-08-28T19:57:35.756Z,6.67
2022-08-28T20:00:04.329Z,5.70
2022-08-28T20:02:31.608Z,6.03
2022-08-28T20:04:59.489Z,5.90
2022-08-28T20:07:26.312Z,6.77
2022-08-28T20:09:53.103Z,6.23
2022-08-28T20:12:20.152Z,5.90
2022-08-28T20:14:47.017Z,6.37
2022-08-28T20:17:14.131Z,6.60
2022-08-28T20:19:41.400Z,6.27
2022-08-28T20:22:08.449Z,6.60
2022-08-28T20:24:37.230Z,6.47
2022-08-28T20:27:04.136Z,6.47
2022-08-28T20:29:31.285Z,6.53
2022-08-28T20:31:58.112Z,6.53
2022-08-28T20:34:24.956Z,5.77
2022-08-28T20:36:52.311Z,5.80
2022-08-28T20:39:20.127Z,5.57
2022-08-28T20:41:47.555Z,6.23
2022-08-28T20:44:16.771Z,6.67
2022-08-28T20:46:44.098Z,6.37
2022-08-28T20:49:17.823Z,6.60
2022-08-28T20:51:56.411Z,6.33
2022-08-28T20:54:33.352Z,6.50
2022-08-28T20:57:03.542Z,6.60
2022-08-28T20:59:39.682Z,7.03
2022-08-28T21:02:18.832Z,7.13
2022-08-28T21:04:47.123Z,6.57
2022-08-28T21:07:15.796Z,6.60
2022-08-28T21:10:04.848Z,6.27
2022-08-28T21:12:29.966Z,7.07
2022-08-28T21:14:56.887Z,6.73
2022-08-28T21:17:29.652Z,6.67
2022-08-28T21:20:00.281Z,6.13
2022-08-28T21:22:27.471Z,6.33
2022-08-28T21:24:54.311Z,6.10
2022-08-28T21:27:21.061Z,6.30
2022-08-28T21:29:47.927Z,6.43
2022-08-28T21:32:15.061Z,6.97
2022-08-28T21:34:41.803Z,6.20
2022-08-28T21:37:08.626Z,7.17
2022-08-28T21:39:35.466Z,6.40
2022-08-28T21:42:02.309Z,6.67
2022-08-28T21:44:29.138Z,6.10
2022-08-28T21:46:55.961Z,6.07
2022-08-28T21:49:23.109Z,6.57
2022-08-28T21:51:50.729Z,6.20
2022-08-28T21:54:18.622Z,6.77
2022-08-28T21:56:46.286Z,6.37
2022-08-28T21:59:15.275Z,6.60
2022-08-28T22:01:42.266Z,6.17
2022-08-28T22:04:09.149Z,6.60
2022-08-28T22:06:36.037Z,5.90
2022-08-28T22:09:04.927Z,6.43
2022-08-28T22:11:33.101Z,6.47
2022-08-28T22:14:00.534Z,6.00
2022-08-28T22:16:28.545Z,5.87
2022-08-28T22:18:55.483Z,6.90
2022-08-28T22:21:43.484Z,6.33
2022-08-28T22:24:11.386Z,6.00
2022-08-28T22:26:39.187Z,6.10
2022-08-28T22:29:06.078Z,6.20
2022-08-28T22:31:33.046Z,6.33
2022-08-28T22:33:59.946Z,6.77
2022-08-28T22:36:29.312Z,5.63
2022-08-28T22:38:56.730Z,6.70
2022-08-28T22:41:24.295Z,6.03
2022-08-28T22:43:51.834Z,6.03
2022-08-28T22:46:20.598Z,6.00
2022-08-28T22:48:48.075Z,6.73
2022-08-28T22:51:18.540Z,7.17
2022-08-28T22:53:46.835Z,6.17
2022-08-28T22:56:15.855Z,6.13
2022-08-28T22:58:43.071Z,6.27
2022-08-28T23:01:14.455Z,6.23
2022-08-28T23:03:41.793Z,6.03
2022-08-28T23:06:08.649Z,6.00
2022-08-28T23:08:35.643Z,6.40
2022-08-28T23:11:02.913Z,6.03
2022-08-28T23:13:31.000Z,6.43
2022-08-28T23:15:58.287Z,6.70
2022-08-28T23:18:25.346Z,6.27
2022-08-28T23:20:52.549Z,6.40
2022-08-28T23:23:20.186Z,5.97
2022-08-28T23:25:47.257Z,6.57
2022-08-28T23:28:14.045Z,5.77
2022-08-28T23:30:44.026Z,6.27
2022-08-28T23:33:23.099Z,5.63
2022-08-28T23:35:52.267Z,5.63
2022-08-28T23:38:19.339Z,5.33
2022-08-28T23:40:48.157Z,5.57
2022-08-28T23:43:15.438Z,5.33
2022-08-28T23:45:43.604Z,5.60
2022-08-28T23:48:10.964Z,5.93
2022-08-28T23:50:39.865Z,4.70
2022-08-28T23:53:09.307Z,5.30
2022-08-28T23:55:36.320Z,5.70
2022-08-28T23:58:03.507Z,5.77
